Time;durP1;ratioP1;P1;durP2;ratioP2;P2;SDS_P1;SDS_P2;PMS_P1;PMS_P2;Temp;Humidity;BMP_temperature;BMP_pressure;BME280_temperature;BME280_humidity;BME280_pressure;Samples;Min_cycle;Max_cycle;Signal;HPM_P1;HPM_P2
2023/03/08 00:00:07;;;;;;;;;;;4.50;99.90;5.00;98563.00;;;;346941;28;88143;-87
2023/03/08 00:00:19;;;;;;;;;;;4.50;99.90;5.00;98550.00;;;;347366;28;83525;-88
2023/03/08 00:00:31;;;;;;;;;;;4.50;99.90;5.10;98555.00;;;;346794;28;89171;-87
2023/03/08 00:00:43;;;;;;;;;;;4.50;99.90;5.00;98562.00;;;;347467;28;83293;-87
2023/03/08 00:00:55;;;;;;;;;;;4.50;99.90;5.00;98564.00;;;;345520;28;88788;-87
2023/03/08 00:01:14;;;;;;;;;;;4.50;99.90;5.00;98559.00;;;;347402;28;83434;-87
2023/03/08 00:01:25;;;;;;;;;;;4.40;99.90;5.00;98556.00;;;;348494;27;88589;-87
2023/03/08 00:01:37;;;;;;;;;;;4.50;99.90;5.10;98555.00;;;;345828;28;82546;-87
2023/03/08 00:01:49;;;;;;;;;;;4.50;99.90;5.10;98556.00;;;;346550;28;92388;-87
2023/03/08 00:02:01;;;;;;;;;;;4.50;99.90;5.10;98555.00;;;;345654;28;83531;-87
2023/03/08 00:02:12;;;;;;;;;;;4.50;99.90;5.10;98554.00;;;;342939;28;87954;-87
2023/03/08 00:02:24;;;;;;;;;;;4.50;99.90;5.10;98561.00;;;;346064;28;82448;-87
2023/03/08 00:02:36;;;;;;;;;;;4.50;99.90;5.10;98560.00;;;;346936;28;91787;-88
2023/03/08 00:02:48;;;;;;;;;;;4.50;99.90;5.10;98563.00;;;;346048;28;82529;-87
2023/03/08 00:03:00;;;;;;;;;;;4.50;99.90;5.10;98560.00;;;;346712;28;91962;-86
2023/03/08 00:03:13;;;;;;;;;;;4.50;99.90;5.10;98560.00;;;;345863;28;82594;-87
2023/03/08 00:03:25;;;;;;;;;;;4.50;99.90;5.10;98568.00;;;;343858;28;90451;-87
2023/03/08 00:03:37;;;;;;;;;;;4.50;99.90;5.10;98560.00;;;;346055;28;83266;-87
2023/03/08 00:03:53;;;;;;;;;;;4.50;99.90;5.10;98559.00;;;;345461;28;88300;-86
2023/03/08 00:04:05;;;;;;;;;;;4.50;99.90;5.10;98561.00;;;;347222;28;82445;-86
2023/03/08 00:04:17;;;;;;;;;;;4.50;99.90;5.10;98560.00;;;;346991;28;89006;-87
2023/03/08 00:04:28;;;;;;;;;;;4.40;99.90;5.00;98557.00;;;;347264;28;83380;-87
2023/03/08 00:04:40;;;;;;;;;;;4.40;99.90;5.10;98564.00;;;;345499;28;91937;-87
2023/03/08 00:04:55;;;;;;;;;;;4.40;99.90;5.00;98558.00;;;;347449;28;82416;-87
2023/03/08 00:05:08;;;;;;;;;;;4.40;99.90;5.00;98562.00;;;;347084;28;89318;-87
2023/03/08 00:05:20;;;;;;;;;;;4.50;99.90;5.00;98564.00;;;;347797;28;82468;-87
2023/03/08 00:05:32;;;;;;;;;;;4.40;99.90;5.00;98553.00;;;;347068;28;89451;-87
2023/03/08 00:05:44;;;;;;;;;;;4.50;99.90;4.90;98560.00;;;;347468;28;82477;-86
2023/03/08 00:05:55;;;;;;;;;;;4.40;99.90;4.90;98560.00;;;;346770;28;90693;-87
2023/03/08 00:06:08;;;;;;;;;;;4.40;99.90;4.90;98564.00;;;;346076;28;83155;-87
2023/03/08 00:06:20;;;;;;;;;;;4.40;99.90;4.90;98551.00;;;;345552;28;90621;-87
2023/03/08 00:06:32;;;;;;;;;;;4.40;99.90;4.90;98567.00;;;;347199;28;82347;-87
2023/03/08 00:06:44;;;;;;;;;;;4.40;99.90;4.90;98559.00;;;;344249;28;87667;-88
2023/03/08 00:06:56;;;;;;;;;;;4.40;99.90;4.90;98551.00;;;;344671;28;82493;-87
2023/03/08 00:07:08;;;;;;;;;;;4.40;99.90;4.90;98559.00;;;;345609;28;90698;-87
2023/03/08 00:07:20;;;;;;;;;;;4.40;99.90;4.90;98557.00;;;;344604;28;83373;-87
2023/03/08 00:07:32;;;;;;;;;;;4.40;99.90;4.90;98553.00;;;;346806;28;90919;-86
2023/03/08 00:07:44;;;;;;;;;;;4.40;99.90;4.90;98563.00;;;;348738;27;82485;-87
2023/03/08 00:07:55;;;;;;;;;;;4.40;99.90;4.90;98550.00;;;;346936;28;91044;-86
2023/03/08 00:08:07;;;;;;;;;;;4.40;99.90;4.90;98545.00;;;;347464;28;83463;-88
2023/03/08 00:08:19;;;;;;;;;;;4.40;99.90;4.80;98546.00;;;;346895;28;91074;-87
2023/03/08 00:08:31;;;;;;;;;;;4.40;99.90;4.80;98549.00;;;;346171;28;83546;-87
2023/03/08 00:08:42;;;;;;;;;;;4.40;99.90;4.80;98550.00;;;;347158;28;89733;-87
2023/03/08 00:08:56;;;;;;;;;;;4.40;99.90;4.80;98556.00;;;;348370;27;83643;-87
2023/03/08 00:09:08;;;;;;;;;;;4.40;99.90;4.90;98551.00;;;;346951;28;88263;-87
2023/03/08 00:09:20;;;;;;;;;;;4.40;99.90;4.80;98548.00;;;;346009;28;83473;-87
2023/03/08 00:09:32;;;;;;;;;;;4.40;99.90;4.90;98550.00;;;;346779;28;89154;-87
2023/03/08 00:09:44;;;;;;;;;;;4.40;99.90;5.00;98547.00;;;;344637;28;83343;-86
2023/03/08 00:09:56;;;;;;;;;;;4.40;99.90;5.00;98546.00;;;;345301;28;89039;-87
2023/03/08 00:10:09;;;;;;;;;;;4.40;99.90;5.00;98541.00;;;;346090;28;83462;-87
2023/03/08 00:10:21;;;;;;;;;;;4.40;99.90;4.90;98539.00;;;;344205;28;89528;-87
2023/03/08 00:10:33;;;;;;;;;;;4.40;99.90;5.00;98549.00;;;;347224;28;82425;-87
2023/03/08 00:10:45;;;;;;;;;;;4.40;99.90;4.90;98550.00;;;;345424;28;90399;-87
2023/03/08 00:10:56;;;;;;;;;;;4.40;99.90;4.90;98548.00;;;;348438;27;83973;-87
2023/03/08 00:11:10;;;;;;;;;;;4.40;99.90;4.90;98550.00;;;;345497;28;90523;-87
2023/03/08 00:11:21;;;;;;;;;;;4.40;99.90;5.00;98541.00;;;;348458;27;83454;-87
2023/03/08 00:11:33;;;;;;;;;;;4.40;99.90;5.00;98541.00;;;;347986;27;90587;-87
2023/03/08 00:11:45;;;;;;;;;;;4.40;99.90;5.10;98547.00;;;;345965;28;83353;-88
2023/03/08 00:11:57;;;;;;;;;;;4.40;99.90;5.10;98546.00;;;;344123;28;89745;-87
2023/03/08 00:12:09;;;;;;;;;;;4.40;99.90;5.00;98544.00;;;;347249;28;82564;-87
2023/03/08 00:12:21;;;;;;;;;;;4.40;99.90;5.00;98542.00;;;;345632;28;89443;-88
2023/03/08 00:12:33;;;;;;;;;;;4.40;99.90;5.10;98547.00;;;;344322;28;83472;-87
2023/03/08 00:12:45;;;;;;;;;;;4.40;99.90;5.10;98547.00;;;;345671;28;88770;-87
2023/03/08 00:12:56;;;;;;;;;;;4.40;99.90;5.00;98552.00;;;;345993;28;82527;-87
2023/03/08 00:13:08;;;;;;;;;;;4.40;99.90;5.00;98550.00;;;;345548;28;89087;-87
2023/03/08 00:13:20;;;;;;;;;;;4.40;99.90;4.90;98550.00;;;;347438;28;82305;-88
2023/03/08 00:13:32;;;;;;;;;;;4.40;99.90;4.90;98549.00;;;;345417;28;92863;-87
2023/03/08 00:13:44;;;;;;;;;;;4.40;99.90;4.90;98548.00;;;;346103;28;83447;-87
2023/03/08 00:13:56;;;;;;;;;;;4.40;99.90;4.90;98551.00;;;;346777;28;88370;-87
2023/03/08 00:14:07;;;;;;;;;;;4.40;99.90;4.90;98552.00;;;;345680;28;82578;-87
2023/03/08 00:14:21;;;;;;;;;;;4.40;99.90;4.80;98551.00;;;;348270;27;90465;-87
2023/03/08 00:14:32;;;;;;;;;;;4.40;99.90;4.80;98546.00;;;;350200;27;83460;-87
2023/03/08 00:14:45;;;;;;;;;;;4.30;99.90;4.80;98553.00;;;;345437;28;90459;-87
2023/03/08 00:14:56;;;;;;;;;;;4.30;99.90;4.80;98560.00;;;;346091;28;82409;-87
2023/03/08 00:15:08;;;;;;;;;;;4.40;99.90;4.80;98559.00;;;;346995;28;87642;-87
2023/03/08 00:15:21;;;;;;;;;;;4.30;99.90;4.90;98556.00;;;;346168;28;83441;-86
2023/03/08 00:15:38;;;;;;;;;;;4.30;99.90;4.80;98546.00;;;;348331;27;90076;-87
2023/03/08 00:15:51;;;;;;;;;;;4.30;99.90;4.80;98548.00;;;;347234;27;83563;-87
2023/03/08 00:16:04;;;;;;;;;;;4.30;99.90;4.90;98549.00;;;;348340;27;88881;-87
2023/03/08 00:16:16;;;;;;;;;;;4.30;99.90;4.90;98554.00;;;;344635;28;83337;-87
2023/03/08 00:16:28;;;;;;;;;;;4.30;99.90;4.80;98557.00;;;;346727;28;90622;-88
2023/03/08 00:16:40;;;;;;;;;;;4.30;99.90;4.90;98559.00;;;;348786;27;83619;-87
2023/03/08 00:16:51;;;;;;;;;;;4.30;99.90;4.90;98557.00;;;;342806;28;89137;-87
2023/03/08 00:17:03;;;;;;;;;;;4.30;99.90;4.90;98558.00;;;;345992;28;82440;-87
2023/03/08 00:17:16;;;;;;;;;;;4.30;99.90;4.90;98569.00;;;;345546;28;88909;-86
2023/03/08 00:17:28;;;;;;;;;;;4.30;99.90;4.90;98552.00;;;;345837;28;83666;-87
2023/03/08 00:17:39;;;;;;;;;;;4.30;99.90;5.00;98560.00;;;;345507;28;88916;-87
2023/03/08 00:17:51;;;;;;;;;;;4.30;99.90;5.00;98566.00;;;;347193;28;82297;-87
2023/03/08 00:18:06;;;;;;;;;;;4.30;99.90;4.90;98570.00;;;;345371;28;90197;-87
2023/03/08 00:18:18;;;;;;;;;;;4.30;99.90;4.90;98564.00;;;;347474;28;82418;-87
2023/03/08 00:18:30;;;;;;;;;;;4.30;99.90;4.80;98563.00;;;;345497;28;88788;-88
2023/03/08 00:18:41;;;;;;;;;;;4.30;99.90;4.80;98571.00;;;;345800;28;83486;-87
2023/03/08 00:18:53;;;;;;;;;;;4.30;99.90;4.80;98566.00;;;;349491;27;90259;-86
2023/03/08 00:19:05;;;;;;;;;;;4.30;99.90;4.80;98562.00;;;;348778;27;83531;-87
2023/03/08 00:19:17;;;;;;;;;;;4.30;99.90;4.90;98567.00;;;;345829;28;88809;-87
2023/03/08 00:19:29;;;;;;;;;;;4.30;99.90;4.80;98566.00;;;;346139;28;82620;-87
2023/03/08 00:19:41;;;;;;;;;;;4.30;99.90;4.80;98565.00;;;;345504;28;91526;-86
2023/03/08 00:19:53;;;;;;;;;;;4.30;99.90;4.80;98567.00;;;;346122;28;83513;-86
2023/03/08 00:20:05;;;;;;;;;;;4.30;99.90;4.90;98574.00;;;;347179;28;90949;-86
2023/03/08 00:20:17;;;;;;;;;;;4.30;99.90;4.90;98558.00;;;;347741;28;83288;-87
2023/03/08 00:20:29;;;;;;;;;;;4.30;99.90;4.80;98565.00;;;;346960;28;89158;-87
2023/03/08 00:20:41;;;;;;;;;;;4.30;99.90;4.80;98568.00;;;;346300;28;83520;-87
2023/03/08 00:21:09;;;;;;;;;;;4.30;99.90;4.80;98569.00;;;;346916;28;91589;-87
2023/03/08 00:21:21;;;;;;;;;;;4.30;99.90;4.80;98562.00;;;;347617;28;83313;-87
2023/03/08 00:21:33;;;;;;;;;;;4.30;99.90;4.90;98555.00;;;;348820;27;86608;-87
2023/03/08 00:21:45;;;;;;;;;;;4.30;99.90;5.00;98572.00;;;;347518;28;83340;-87
2023/03/08 00:21:57;;;;;;;;;;;4.30;99.90;5.10;98562.00;;;;345784;28;90143;-87
2023/03/08 00:22:09;;;;;;;;;;;4.30;99.90;5.10;98566.00;;;;344935;28;83364;-87
2023/03/08 00:22:21;;;;;;;;;;;4.30;99.90;5.10;98565.00;;;;345815;28;90461;-86
2023/03/08 00:22:36;;;;;;;;;;;4.30;99.90;5.00;98567.00;;;;346245;28;82516;-86
2023/03/08 00:22:48;;;;;;;;;;;4.30;99.90;4.90;98561.00;;;;346255;28;88848;-87
2023/03/08 00:23:00;;;;;;;;;;;4.30;99.90;5.00;98558.00;;;;346063;28;83540;-86
2023/03/08 00:23:12;;;;;;;;;;;4.30;99.90;5.10;98561.00;;;;347397;28;92185;-87
2023/03/08 00:23:24;;;;;;;;;;;4.30;99.90;5.10;98557.00;;;;346387;28;83558;-87
2023/03/08 00:23:35;;;;;;;;;;;4.30;99.90;5.10;98561.00;;;;348394;27;90590;-87
2023/03/08 00:23:50;;;;;;;;;;;4.30;99.90;5.10;98560.00;;;;346270;28;82474;-87
2023/03/08 00:24:02;;;;;;;;;;;4.40;99.90;5.10;98560.00;;;;345667;28;90491;-87
2023/03/08 00:24:15;;;;;;;;;;;4.30;99.90;5.10;98550.00;;;;347955;28;83356;-88
2023/03/08 00:24:27;;;;;;;;;;;4.40;99.90;5.10;98555.00;;;;345980;28;89865;-87
2023/03/08 00:24:39;;;;;;;;;;;4.40;99.90;5.00;98558.00;;;;349917;27;83409;-87
2023/03/08 00:24:52;;;;;;;;;;;4.40;99.90;5.00;98562.00;;;;345536;28;91189;-87
2023/03/08 00:25:04;;;;;;;;;;;4.30;99.90;5.00;98556.00;;;;346177;28;82422;-87
2023/03/08 00:25:16;;;;;;;;;;;4.30;99.90;5.00;98550.00;;;;345674;28;91652;-87
2023/03/08 00:25:28;;;;;;;;;;;4.40;99.90;5.00;98549.00;;;;345975;28;82637;-87
2023/03/08 00:25:40;;;;;;;;;;;4.40;99.90;5.00;98548.00;;;;345809;28;86605;-87
2023/03/08 00:25:53;;;;;;;;;;;4.40;99.90;5.10;98553.00;;;;347295;28;83293;-87
2023/03/08 00:26:04;;;;;;;;;;;4.30;99.90;5.20;98550.00;;;;347251;28;88588;-87
2023/03/08 00:26:17;;;;;;;;;;;4.40;99.90;5.20;98554.00;;;;347380;28;83516;-87
2023/03/08 00:26:28;;;;;;;;;;;4.40;99.90;5.20;98552.00;;;;346178;28;89388;-87
2023/03/08 00:26:40;;;;;;;;;;;4.40;99.90;5.20;98550.00;;;;349156;28;82495;-86
2023/03/08 00:26:52;;;;;;;;;;;4.40;99.90;5.10;98544.00;;;;346018;28;86318;-86
2023/03/08 00:27:04;;;;;;;;;;;4.40;99.90;5.10;98550.00;;;;350764;27;82497;-86
2023/03/08 00:27:16;;;;;;;;;;;4.40;99.90;5.10;98547.00;;;;350172;27;89559;-85
2023/03/08 00:27:27;;;;;;;;;;;4.40;99.90;5.10;98539.00;;;;349222;28;83007;-87
2023/03/08 00:27:39;;;;;;;;;;;4.40;99.90;5.10;98554.00;;;;349955;27;90266;-86
2023/03/08 00:27:51;;;;;;;;;;;4.40;99.90;5.10;98550.00;;;;350676;27;82228;-85
2023/03/08 00:28:03;;;;;;;;;;;4.40;99.90;5.10;98549.00;;;;349054;28;89266;-87
2023/03/08 00:28:15;;;;;;;;;;;4.40;99.90;5.10;98546.00;;;;348128;28;82509;-87
2023/03/08 00:28:26;;;;;;;;;;;4.40;99.90;5.10;98551.00;;;;347172;28;89620;-86
2023/03/08 00:28:38;;;;;;;;;;;4.40;99.90;5.10;98552.00;;;;349317;28;82584;-86
2023/03/08 00:28:51;;;;;;;;;;;4.40;99.90;5.10;98552.00;;;;346108;28;86610;-86
2023/03/08 00:29:03;;;;;;;;;;;4.40;99.90;5.20;98552.00;;;;349268;28;82317;-87
2023/03/08 00:29:15;;;;;;;;;;;4.40;99.90;5.10;98547.00;;;;350124;27;88206;-87
2023/03/08 00:29:27;;;;;;;;;;;4.40;99.90;5.00;98553.00;;;;348940;28;82551;-86
2023/03/08 00:29:38;;;;;;;;;;;4.40;99.90;5.10;98550.00;;;;348550;28;89602;-87
2023/03/08 00:29:50;;;;;;;;;;;4.40;99.90;5.10;98542.00;;;;350568;27;82453;-87
2023/03/08 00:30:04;;;;;;;;;;;4.40;99.90;5.10;98541.00;;;;347444;28;88515;-87
2023/03/08 00:30:16;;;;;;;;;;;4.40;99.90;5.20;98547.00;;;;346256;28;82624;-87
2023/03/08 00:30:28;;;;;;;;;;;4.40;99.90;5.20;98548.00;;;;347077;28;91229;-86
2023/03/08 00:30:40;;;;;;;;;;;4.40;99.90;5.20;98540.00;;;;347465;28;83062;-87
2023/03/08 00:30:58;;;;;;;;;;;4.40;99.90;5.20;98552.00;;;;346839;28;89819;-87
2023/03/08 00:31:11;;;;;;;;;;;4.40;99.90;5.10;98541.00;;;;347717;28;82429;-86
2023/03/08 00:31:23;;;;;;;;;;;4.40;99.90;5.10;98535.00;;;;347171;28;87987;-86
2023/03/08 00:31:35;;;;;;;;;;;4.40;99.90;5.10;98540.00;;;;348850;28;82683;-86
2023/03/08 00:31:47;;;;;;;;;;;4.40;99.90;5.10;98548.00;;;;346948;28;89057;-87
2023/03/08 00:31:59;;;;;;;;;;;4.40;99.90;5.10;98545.00;;;;348882;27;82250;-86
2023/03/08 00:32:10;;;;;;;;;;;4.40;99.90;5.10;98546.00;;;;345811;28;88588;-87
2023/03/08 00:32:25;;;;;;;;;;;4.40;99.90;5.00;98550.00;;;;348898;28;82559;-87
2023/03/08 00:32:37;;;;;;;;;;;4.40;99.90;4.90;98546.00;;;;349731;27;89788;-87
2023/03/08 00:32:49;;;;;;;;;;;4.40;99.90;4.90;98545.00;;;;346062;28;82629;-86
2023/03/08 00:33:01;;;;;;;;;;;4.40;99.90;4.80;98557.00;;;;349624;27;90883;-87
2023/03/08 00:33:13;;;;;;;;;;;4.40;99.90;4.80;98554.00;;;;347510;28;82453;-86
2023/03/08 00:33:24;;;;;;;;;;;4.40;99.90;4.90;98550.00;;;;345723;28;92269;-87
2023/03/08 00:33:36;;;;;;;;;;;4.40;99.90;4.80;98551.00;;;;346298;28;82391;-86
2023/03/08 00:33:52;;;;;;;;;;;4.30;99.90;4.80;98554.00;;;;350770;27;90815;-87
2023/03/08 00:34:04;;;;;;;;;;;4.30;99.90;4.80;98547.00;;;;347582;28;82468;-87
2023/03/08 00:34:16;;;;;;;;;;;4.30;99.90;4.80;98553.00;;;;348645;28;88683;-86
2023/03/08 00:34:28;;;;;;;;;;;4.30;99.90;4.80;98549.00;;;;348740;28;82831;-87
2023/03/08 00:34:45;;;;;;;;;;;4.30;99.90;4.70;98550.00;;;;346755;28;89259;-87
2023/03/08 00:34:56;;;;;;;;;;;4.30;99.90;4.70;98550.00;;;;346255;28;83308;-87
2023/03/08 00:35:08;;;;;;;;;;;4.30;99.90;4.70;98544.00;;;;344388;28;89245;-87
2023/03/08 00:35:20;;;;;;;;;;;4.30;99.90;4.70;98550.00;;;;346225;28;83530;-87
2023/03/08 00:35:32;;;;;;;;;;;4.30;99.90;4.80;98547.00;;;;345348;28;90655;-87
2023/03/08 00:35:44;;;;;;;;;;;4.30;99.90;4.80;98548.00;;;;347628;28;83306;-87
2023/03/08 00:36:02;;;;;;;;;;;4.30;99.90;4.80;98543.00;;;;347066;27;89651;-87
2023/03/08 00:36:17;;;;;;;;;;;4.30;99.90;4.90;98553.00;;;;344585;28;83473;-87
2023/03/08 00:36:29;;;;;;;;;;;4.30;99.90;5.00;98543.00;;;;344326;28;91813;-86
2023/03/08 00:36:41;;;;;;;;;;;4.30;99.90;4.90;98541.00;;;;346271;28;82469;-87
2023/03/08 00:36:52;;;;;;;;;;;4.30;99.90;5.00;98535.00;;;;344401;28;89198;-87
2023/03/08 00:37:04;;;;;;;;;;;4.30;99.90;5.00;98539.00;;;;347386;27;83531;-87
2023/03/08 00:37:16;;;;;;;;;;;4.30;99.90;4.90;98548.00;;;;345540;28;89663;-86
2023/03/08 00:37:28;;;;;;;;;;;4.30;99.90;4.90;98534.00;;;;349130;27;82389;-87
2023/03/08 00:37:40;;;;;;;;;;;4.30;99.90;4.90;98535.00;;;;347187;28;89219;-87
2023/03/08 00:37:51;;;;;;;;;;;4.30;99.90;4.80;98536.00;;;;345988;28;82657;-87
2023/03/08 00:38:03;;;;;;;;;;;4.30;99.90;4.80;98531.00;;;;347086;28;90572;-87
2023/03/08 00:38:15;;;;;;;;;;;4.30;99.90;4.80;98536.00;;;;347367;28;83570;-87
2023/03/08 00:38:27;;;;;;;;;;;4.20;99.90;4.80;98534.00;;;;345672;28;90486;-87
2023/03/08 00:38:40;;;;;;;;;;;4.20;99.90;4.90;98541.00;;;;347662;27;82658;-87
2023/03/08 00:38:51;;;;;;;;;;;4.30;99.90;4.90;98534.00;;;;348627;27;89257;-87
2023/03/08 00:39:03;;;;;;;;;;;4.20;99.90;4.90;98536.00;;;;347648;28;83345;-86
2023/03/08 00:39:15;;;;;;;;;;;4.20;99.90;5.00;98540.00;;;;346910;28;91050;-86
2023/03/08 00:39:27;;;;;;;;;;;4.30;99.90;5.00;98536.00;;;;347689;28;83320;-86
2023/03/08 00:39:39;;;;;;;;;;;4.30;99.90;5.10;98541.00;;;;347276;28;89689;-87
2023/03/08 00:39:51;;;;;;;;;;;4.30;99.90;5.10;98534.00;;;;350086;27;83501;-86
2023/03/08 00:40:04;;;;;;;;;;;4.30;99.90;5.00;98529.00;;;;345675;28;88860;-87
2023/03/08 00:40:16;;;;;;;;;;;4.30;99.90;4.90;98536.00;;;;345008;28;82442;-87
2023/03/08 00:40:28;;;;;;;;;;;4.30;99.90;4.80;98544.00;;;;344334;28;90140;-87
2023/03/08 00:40:40;;;;;;;;;;;4.30;99.90;4.90;98539.00;;;;346259;28;83744;-86
2023/03/08 00:40:52;;;;;;;;;;;4.20;99.90;4.90;98529.00;;;;346866;28;90478;-87
2023/03/08 00:41:04;;;;;;;;;;;4.20;99.90;4.90;98538.00;;;;343472;28;83419;-87
2023/03/08 00:41:16;;;;;;;;;;;4.30;99.90;4.90;98529.00;;;;348476;27;90649;-86
2023/03/08 00:41:28;;;;;;;;;;;4.20;99.90;5.00;98526.00;;;;347466;28;83601;-87
2023/03/08 00:41:39;;;;;;;;;;;4.20;99.90;4.90;98537.00;;;;346078;28;90277;-87
2023/03/08 00:41:51;;;;;;;;;;;4.30;99.90;5.00;98527.00;;;;349040;27;83510;-88
2023/03/08 00:42:03;;;;;;;;;;;4.20;99.90;4.90;98521.00;;;;348472;27;91881;-87
2023/03/08 00:42:15;;;;;;;;;;;4.20;99.90;4.90;98539.00;;;;347339;28;83454;-87
2023/03/08 00:42:27;;;;;;;;;;;4.30;99.90;4.90;98531.00;;;;347077;27;88397;-87
2023/03/08 00:42:39;;;;;;;;;;;4.20;99.90;5.00;98541.00;;;;348687;27;83366;-86
2023/03/08 00:42:51;;;;;;;;;;;4.30;99.90;5.00;98536.00;;;;347077;28;90550;-87
2023/03/08 00:43:02;;;;;;;;;;;4.20;99.90;4.90;98534.00;;;;348783;27;82432;-87
2023/03/08 00:43:14;;;;;;;;;;;4.30;99.90;4.90;98537.00;;;;346988;27;90165;-87
2023/03/08 00:43:26;;;;;;;;;;;4.30;99.90;4.80;98542.00;;;;346242;28;82469;-87
2023/03/08 00:43:40;;;;;;;;;;;4.30;99.90;4.80;98544.00;;;;345543;28;90161;-87
2023/03/08 00:43:51;;;;;;;;;;;4.20;99.90;4.80;98537.00;;;;346056;28;83458;-87
2023/03/08 00:44:03;;;;;;;;;;;4.20;99.90;4.80;98530.00;;;;347263;28;87469;-87
2023/03/08 00:44:15;;;;;;;;;;;4.20;99.90;4.80;98535.00;;;;346216;28;83233;-87
2023/03/08 00:44:27;;;;;;;;;;;4.20;99.90;4.80;98527.00;;;;346773;28;91754;-87
2023/03/08 00:44:38;;;;;;;;;;;4.20;99.90;4.80;98535.00;;;;347253;28;82611;-87
2023/03/08 00:44:50;;;;;;;;;;;4.20;99.90;4.90;98531.00;;;;345585;28;90742;-87
2023/03/08 00:45:02;;;;;;;;;;;4.20;99.90;4.80;98542.00;;;;347710;28;83444;-87
2023/03/08 00:45:14;;;;;;;;;;;4.20;99.90;4.80;98529.00;;;;347263;28;87782;-87
2023/03/08 00:45:26;;;;;;;;;;;4.20;99.90;4.70;98526.00;;;;344575;28;83852;-87
2023/03/08 00:45:37;;;;;;;;;;;4.20;99.90;4.60;98537.00;;;;345866;28;87652;-87
2023/03/08 00:45:49;;;;;;;;;;;4.20;99.90;4.60;98543.00;;;;349054;27;83347;-87
2023/03/08 00:46:04;;;;;;;;;;;4.20;99.90;4.60;98540.00;;;;348338;27;90100;-86
2023/03/08 00:46:16;;;;;;;;;;;4.20;99.90;4.60;98540.00;;;;346230;28;82492;-87
2023/03/08 00:46:28;;;;;;;;;;;4.20;99.90;4.60;98536.00;;;;347064;28;92527;-87
2023/03/08 00:46:40;;;;;;;;;;;4.20;99.90;4.70;98550.00;;;;347304;28;83568;-86
2023/03/08 00:46:51;;;;;;;;;;;4.10;99.90;4.70;98541.00;;;;345717;28;92280;-87
2023/03/08 00:47:03;;;;;;;;;;;4.10;99.90;4.70;98531.00;;;;347367;28;82577;-87
2023/03/08 00:47:15;;;;;;;;;;;4.10;99.90;4.60;98541.00;;;;346885;27;89514;-86
2023/03/08 00:47:27;;;;;;;;;;;4.10;99.90;4.60;98535.00;;;;348531;27;83474;-88
2023/03/08 00:47:39;;;;;;;;;;;4.10;99.90;4.60;98539.00;;;;348379;27;89980;-87
2023/03/08 00:47:51;;;;;;;;;;;4.10;99.90;4.70;98536.00;;;;347671;28;82591;-87
2023/03/08 00:48:02;;;;;;;;;;;4.20;99.90;4.70;98543.00;;;;345737;28;89556;-86
2023/03/08 00:48:14;;;;;;;;;;;4.10;99.90;4.60;98539.00;;;;344905;28;83188;-87
2023/03/08 00:48:26;;;;;;;;;;;4.10;99.90;4.70;98543.00;;;;346797;28;91488;-87
2023/03/08 00:48:38;;;;;;;;;;;4.10;99.90;4.70;98534.00;;;;346242;28;83472;-87
2023/03/08 00:48:50;;;;;;;;;;;4.10;99.90;4.70;98535.00;;;;347343;28;91583;-86
2023/03/08 00:49:03;;;;;;;;;;;4.10;99.90;4.60;98538.00;;;;346483;28;82516;-86
2023/03/08 00:49:14;;;;;;;;;;;4.10;99.90;4.70;98540.00;;;;348399;27;90418;-87
2023/03/08 00:49:26;;;;;;;;;;;4.10;99.90;4.70;98536.00;;;;346163;28;82583;-86
2023/03/08 00:49:38;;;;;;;;;;;4.10;99.90;4.70;98538.00;;;;345701;28;90219;-87
2023/03/08 00:49:50;;;;;;;;;;;4.10;99.90;4.70;98538.00;;;;346020;28;83502;-87
2023/03/08 00:50:02;;;;;;;;;;;4.10;99.90;4.70;98534.00;;;;345752;28;88188;-87
2023/03/08 00:50:14;;;;;;;;;;;4.10;99.90;4.70;98539.00;;;;347253;28;83403;-87
2023/03/08 00:50:26;;;;;;;;;;;4.10;99.90;4.70;98538.00;;;;343964;28;90531;-87
2023/03/08 00:50:38;;;;;;;;;;;4.10;99.90;4.70;98539.00;;;;344740;28;83404;-87
2023/03/08 00:50:50;;;;;;;;;;;4.10;99.90;4.80;98530.00;;;;347192;28;88611;-87
2023/03/08 00:51:02;;;;;;;;;;;4.10;99.90;4.80;98539.00;;;;346182;28;82438;-87
2023/03/08 00:51:14;;;;;;;;;;;4.10;99.90;4.90;98524.00;;;;348559;27;91573;-87
2023/03/08 00:51:26;;;;;;;;;;;4.10;99.90;4.80;98519.00;;;;350377;27;82270;-87
2023/03/08 00:51:38;;;;;;;;;;;4.10;99.90;4.70;98529.00;;;;347233;28;89131;-88
2023/03/08 00:51:49;;;;;;;;;;;4.10;99.90;4.60;98530.00;;;;347574;28;82639;-87
2023/03/08 00:52:01;;;;;;;;;;;4.10;99.90;4.70;98531.00;;;;347207;28;91687;-86
2023/03/08 00:52:13;;;;;;;;;;;4.10;99.90;4.60;98543.00;;;;347512;28;83314;-87
2023/03/08 00:52:25;;;;;;;;;;;4.10;99.90;4.70;98526.00;;;;345774;28;92323;-86
2023/03/08 00:52:36;;;;;;;;;;;4.10;99.90;4.70;98536.00;;;;344850;28;82528;-87
2023/03/08 00:52:48;;;;;;;;;;;4.10;99.90;4.70;98517.00;;;;344555;28;92273;-87
2023/03/08 00:53:00;;;;;;;;;;;4.10;99.90;4.70;98539.00;;;;347608;28;83347;-87
2023/03/08 00:53:12;;;;;;;;;;;4.10;99.90;4.70;98527.00;;;;348526;27;91088;-87
2023/03/08 00:53:23;;;;;;;;;;;4.10;99.90;4.70;98540.00;;;;349131;27;83409;-87
2023/03/08 00:53:35;;;;;;;;;;;4.10;99.90;4.60;98528.00;;;;347187;28;89840;-87
2023/03/08 00:53:47;;;;;;;;;;;4.10;99.90;4.70;98531.00;;;;346080;28;83286;-87
2023/03/08 00:53:59;;;;;;;;;;;4.10;99.90;4.70;98538.00;;;;346864;28;89570;-87
2023/03/08 00:54:11;;;;;;;;;;;4.10;99.90;4.80;98526.00;;;;346335;28;83383;-86
2023/03/08 00:54:22;;;;;;;;;;;4.10;99.90;4.80;98520.00;;;;347229;28;91299;-87
2023/03/08 00:54:34;;;;;;;;;;;4.10;99.90;4.70;98518.00;;;;346247;28;83384;-87
2023/03/08 00:54:46;;;;;;;;;;;4.10;99.90;4.70;98527.00;;;;348593;27;89074;-87
2023/03/08 00:54:58;;;;;;;;;;;4.10;99.90;4.70;98516.00;;;;347752;28;83307;-87
2023/03/08 00:55:10;;;;;;;;;;;4.10;99.90;4.70;98527.00;;;;345678;28;91130;-87
2023/03/08 00:55:21;;;;;;;;;;;4.10;99.90;4.70;98525.00;;;;346292;28;83394;-87
2023/03/08 00:55:33;;;;;;;;;;;4.10;99.90;4.80;98522.00;;;;345968;28;89124;-87
2023/03/08 00:55:49;;;;;;;;;;;4.10;99.90;4.80;98517.00;;;;346164;28;82560;-87
2023/03/08 00:56:01;;;;;;;;;;;4.10;99.90;4.90;98515.00;;;;348568;27;88868;-87
2023/03/08 00:56:13;;;;;;;;;;;4.10;99.90;4.80;98524.00;;;;347562;28;83354;-87
2023/03/08 00:56:25;;;;;;;;;;;4.10;99.90;4.80;98515.00;;;;347053;28;93105;-86
2023/03/08 00:56:36;;;;;;;;;;;4.10;99.90;4.80;98518.00;;;;347433;28;82581;-87
2023/03/08 00:56:48;;;;;;;;;;;4.10;99.90;4.70;98520.00;;;;347342;28;90973;-87
2023/03/08 00:57:00;;;;;;;;;;;4.10;99.90;4.60;98526.00;;;;347874;28;82586;-87
2023/03/08 00:57:11;;;;;;;;;;;4.10;99.90;4.60;98523.00;;;;347309;27;87693;-87
2023/03/08 00:57:23;;;;;;;;;;;4.10;99.90;4.60;98522.00;;;;346330;28;83415;-87
2023/03/08 00:57:35;;;;;;;;;;;4.10;99.90;4.60;98517.00;;;;345779;28;90196;-87
2023/03/08 00:57:47;;;;;;;;;;;4.10;99.90;4.60;98521.00;;;;346545;28;82421;-87
2023/03/08 00:57:59;;;;;;;;;;;4.10;99.90;4.70;98529.00;;;;345991;28;89130;-87
2023/03/08 00:58:10;;;;;;;;;;;4.00;99.90;4.70;98526.00;;;;347691;28;83375;-87
2023/03/08 00:58:23;;;;;;;;;;;4.10;99.90;4.70;98517.00;;;;344390;28;88700;-87
2023/03/08 00:58:35;;;;;;;;;;;4.10;99.90;4.60;98521.00;;;;346585;28;82404;-87
2023/03/08 00:58:47;;;;;;;;;;;4.10;99.90;4.60;98517.00;;;;346166;28;90406;-87
2023/03/08 00:58:59;;;;;;;;;;;4.10;99.90;4.60;98511.00;;;;347880;28;83404;-87
2023/03/08 00:59:11;;;;;;;;;;;4.10;99.90;4.60;98516.00;;;;345932;28;87986;-86
2023/03/08 00:59:22;;;;;;;;;;;4.10;99.90;4.60;98519.00;;;;348991;27;82625;-87
2023/03/08 00:59:34;;;;;;;;;;;4.00;99.90;4.60;98516.00;;;;347518;28;89488;-87
2023/03/08 00:59:46;;;;;;;;;;;4.00;99.90;4.60;98522.00;;;;347595;28;82578;-87
2023/03/08 00:59:58;;;;;;;;;;;4.00;99.90;4.60;98512.00;;;;345952;28;89568;-87
2023/03/08 01:00:11;;;;;;;;;;;4.00;99.90;4.70;98521.00;;;;348032;28;83360;-87
2023/03/08 01:00:23;;;;;;;;;;;4.00;99.90;4.70;98523.00;;;;348707;27;91798;-86
2023/03/08 01:00:35;;;;;;;;;;;4.00;99.90;4.70;98516.00;;;;349001;27;82651;-86
2023/03/08 01:00:47;;;;;;;;;;;4.10;99.90;4.70;98518.00;;;;347112;28;90702;-87
2023/03/08 01:00:59;;;;;;;;;;;4.00;99.90;4.80;98515.00;;;;347631;28;83419;-87
2023/03/08 01:01:14;;;;;;;;;;;4.10;99.90;4.70;98522.00;;;;347122;27;88282;-87
2023/03/08 01:01:25;;;;;;;;;;;4.10;99.90;4.60;98518.00;;;;347518;28;83325;-87
2023/03/08 01:01:37;;;;;;;;;;;4.10;99.90;4.60;98527.00;;;;348581;27;88384;-87
2023/03/08 01:01:49;;;;;;;;;;;4.00;99.90;4.50;98534.00;;;;344896;28;82566;-87
2023/03/08 01:02:01;;;;;;;;;;;4.10;99.90;4.50;98512.00;;;;345777;28;87841;-87